Time;durP1;ratioP1;P1;durP2;ratioP2;P2;SDS_P1;SDS_P2;PMS_P1;PMS_P2;Temp;Humidity;BMP_temperature;BMP_pressure;BME280_temperature;BME280_humidity;BME280_pressure;Samples;Min_cycle;Max_cycle;Signal;HPM_P1;HPM_P2
2021/04/08 00:00:23;;;;;;;6.97;2.88;;;4.80;81.20;;;;;;5046072;28;20098;-56
2021/04/08 00:02:48;;;;;;;5.75;2.75;;;4.70;81.30;;;;;;5045652;28;20426;-56
2021/04/08 00:05:15;;;;;;;4.47;2.58;;;4.60;82.70;;;;;;5046556;28;20032;-56
2021/04/08 00:07:41;;;;;;;5.05;2.33;;;4.70;85.10;;;;;;5045111;28;20033;-56
2021/04/08 00:10:08;;;;;;;4.07;2.30;;;4.50;88.30;;;;;;5045908;28;20458;-56
2021/04/08 00:12:34;;;;;;;5.13;2.10;;;4.40;90.40;;;;;;5045624;28;20060;-56
2021/04/08 00:14:59;;;;;;;5.63;2.60;;;4.30;92.10;;;;;;5045919;28;20436;-56
2021/04/08 00:17:25;;;;;;;5.25;2.53;;;4.40;89.00;;;;;;5045870;28;20033;-56
2021/04/08 00:19:51;;;;;;;4.28;1.90;;;4.40;90.80;;;;;;5045594;28;20113;-56
2021/04/08 00:22:16;;;;;;;5.78;2.00;;;4.40;89.00;;;;;;5045832;28;20628;-56
2021/04/08 00:24:42;;;;;;;4.95;2.17;;;4.20;88.00;;;;;;5045957;28;20033;-56
2021/04/08 00:27:08;;;;;;;4.78;2.42;;;4.30;88.90;;;;;;5045708;28;20060;-56
2021/04/08 00:29:34;;;;;;;8.80;2.70;;;4.60;86.60;;;;;;5045542;28;20098;-56
2021/04/08 00:32:00;;;;;;;5.13;2.50;;;4.80;79.60;;;;;;5045901;28;20043;-56
2021/04/08 00:34:25;;;;;;;3.95;2.00;;;4.70;78.40;;;;;;5060668;28;20052;-56
2021/04/08 00:36:51;;;;;;;5.45;2.08;;;4.80;81.70;;;;;;5065303;28;20075;-56
2021/04/08 00:39:17;;;;;;;5.47;2.33;;;4.80;82.30;;;;;;5065611;28;20021;-56
2021/04/08 00:41:43;;;;;;;5.60;3.13;;;4.80;80.10;;;;;;5065815;28;20090;-56
2021/04/08 00:44:09;;;;;;;9.23;4.47;;;4.80;80.80;;;;;;5065737;28;20413;-56
2021/04/08 00:46:34;;;;;;;7.10;3.33;;;4.90;78.00;;;;;;5065340;28;20079;-56
2021/04/08 00:49:01;;;;;;;7.05;2.97;;;5.00;73.80;;;;;;5065416;28;20459;-56
2021/04/08 00:51:27;;;;;;;3.40;2.13;;;5.10;72.40;;;;;;5065223;28;20430;-56
2021/04/08 00:53:54;;;;;;;4.70;2.35;;;5.00;77.00;;;;;;5065677;28;20024;-56
2021/04/08 00:56:21;;;;;;;4.40;2.25;;;4.80;84.10;;;;;;5067589;28;20032;-56
2021/04/08 00:58:49;;;;;;;4.25;2.10;;;4.50;87.10;;;;;;5068560;28;20054;-56
2021/04/08 01:01:16;;;;;;;4.22;1.98;;;4.50;84.40;;;;;;5069512;28;20024;-56
2021/04/08 01:03:42;;;;;;;4.10;2.30;;;4.10;83.20;;;;;;5068352;28;20099;-56
2021/04/08 01:06:08;;;;;;;4.35;2.45;;;4.20;83.50;;;;;;5068278;28;20034;-56
2021/04/08 01:08:35;;;;;;;5.28;2.72;;;4.20;83.60;;;;;;5068060;28;20117;-56
2021/04/08 01:11:01;;;;;;;5.10;2.40;;;4.20;81.90;;;;;;5068694;28;20028;-56
2021/04/08 01:13:27;;;;;;;5.00;2.38;;;4.20;81.60;;;;;;5068364;28;20059;-56
2021/04/08 01:15:54;;;;;;;4.72;2.38;;;4.30;78.80;;;;;;5068583;28;20032;-56
2021/04/08 01:19:17;;;;;;;8.43;4.65;;;4.50;76.60;;;;;;5068143;28;20052;-56
2021/04/08 01:21:48;;;;;;;13.32;6.72;;;4.70;77.50;;;;;;5066222;28;20020;-56
2021/04/08 01:24:49;;;;;;;15.90;6.65;;;4.70;77.90;;;;;;5066350;28;20033;-56
2021/04/08 01:27:33;;;;;;;12.27;4.57;;;4.60;77.90;;;;;;5068091;28;20041;-56
2021/04/08 01:30:08;;;;;;;8.57;3.80;;;4.50;77.40;;;;;;5068345;28;20020;-56
2021/04/08 01:32:39;;;;;;;12.68;5.57;;;4.50;76.90;;;;;;5064452;28;20036;-56
2021/04/08 01:35:07;;;;;;;10.25;4.45;;;4.50;77.40;;;;;;5047930;28;20036;-56
2021/04/08 01:37:41;;;;;;;9.23;3.90;;;4.40;77.20;;;;;;5046411;28;20876;-56
2021/04/08 01:40:08;;;;;;;7.00;3.25;;;4.40;76.80;;;;;;5048147;28;20071;-56
2021/04/08 01:42:35;;;;;;;9.20;3.40;;;4.40;76.40;;;;;;5047663;28;20459;-56
2021/04/08 01:45:02;;;;;;;8.32;3.25;;;4.40;76.90;;;;;;5047945;28;20029;-56
2021/04/08 01:47:29;;;;;;;5.18;2.47;;;4.40;78.10;;;;;;5047971;28;20514;-56
2021/04/08 01:49:56;;;;;;;7.32;2.65;;;4.30;79.50;;;;;;5047750;28;20048;-56
2021/04/08 01:52:23;;;;;;;6.85;2.92;;;4.20;81.10;;;;;;5047874;28;20048;-56
2021/04/08 01:54:58;;;;;;;4.85;2.50;;;4.10;82.90;;;;;;5048211;28;20025;-56
2021/04/08 01:57:26;;;;;;;6.20;2.75;;;4.20;86.40;;;;;;5047020;28;20116;-56
2021/04/08 01:59:54;;;;;;;7.13;2.75;;;4.10;87.00;;;;;;5048685;28;20021;-56
2021/04/08 02:02:20;;;;;;;4.43;2.40;;;4.20;87.10;;;;;;5047792;28;20021;-56
2021/04/08 02:04:47;;;;;;;5.63;3.17;;;4.30;87.60;;;;;;5046678;28;20120;-56
2021/04/08 02:07:14;;;;;;;4.47;2.30;;;4.10;87.60;;;;;;5047009;28;20395;-56
2021/04/08 02:09:41;;;;;;;6.65;3.03;;;4.00;86.80;;;;;;5046785;28;20144;-56
2021/04/08 02:12:09;;;;;;;7.85;3.47;;;4.00;83.40;;;;;;5047558;28;20483;-56
2021/04/08 02:14:36;;;;;;;7.53;3.85;;;4.00;81.90;;;;;;5046380;28;20029;-56
2021/04/08 02:17:03;;;;;;;9.20;4.07;;;4.20;81.30;;;;;;5046903;28;20032;-56
2021/04/08 02:19:32;;;;;;;9.77;4.10;;;4.40;80.50;;;;;;5046664;28;20017;-56
2021/04/08 02:21:59;;;;;;;8.82;3.85;;;4.60;80.00;;;;;;5046907;28;20147;-56
2021/04/08 02:24:26;;;;;;;8.55;3.65;;;4.60;79.20;;;;;;5047345;28;20025;-56
2021/04/08 02:26:52;;;;;;;10.65;4.07;;;4.60;79.40;;;;;;5047848;28;20052;-56
2021/04/08 02:29:20;;;;;;;7.75;3.97;;;4.60;79.40;;;;;;5045991;28;20498;-56
2021/04/08 02:31:47;;;;;;;7.75;3.25;;;4.30;78.20;;;;;;5046900;28;20491;-56
2021/04/08 02:34:15;;;;;;;6.72;3.17;;;4.10;77.60;;;;;;5046506;28;20194;-56
2021/04/08 02:36:41;;;;;;;7.68;2.95;;;3.80;77.40;;;;;;5046586;28;20025;-56
2021/04/08 02:39:08;;;;;;;5.30;2.58;;;3.70;77.00;;;;;;5047069;28;20025;-56
2021/04/08 02:41:45;;;;;;;4.47;2.38;;;3.70;76.10;;;;;;5046768;28;20522;-56
2021/04/08 02:44:11;;;;;;;3.50;2.22;;;3.80;75.80;;;;;;5047069;28;20021;-56
2021/04/08 02:46:37;;;;;;;4.07;2.30;;;3.80;76.10;;;;;;5046539;28;20013;-56
2021/04/08 02:49:03;;;;;;;7.53;3.00;;;4.00;75.90;;;;;;5046777;28;20525;-56
2021/04/08 02:51:32;;;;;;;4.00;2.65;;;4.00;75.90;;;;;;5046780;28;20029;-56
2021/04/08 02:54:07;;;;;;;5.97;2.50;;;4.00;76.30;;;;;;5046902;28;20021;-56
2021/04/08 02:56:42;;;;;;;5.55;2.60;;;3.90;76.50;;;;;;5046050;28;20037;-56
2021/04/08 02:59:17;;;;;;;6.65;3.20;;;3.80;75.50;;;;;;5046916;28;20013;-56
2021/04/08 03:02:13;;;;;;;5.13;2.10;;;3.70;75.10;;;;;;5046528;28;20036;-56
2021/04/08 03:04:50;;;;;;;6.07;2.60;;;3.80;74.90;;;;;;5049340;28;20037;-56
2021/04/08 03:07:28;;;;;;;5.38;2.05;;;3.80;74.40;;;;;;5046460;28;20510;-56
2021/04/08 03:09:56;;;;;;;3.70;2.22;;;3.80;74.50;;;;;;5046961;28;20047;-57
2021/04/08 03:12:22;;;;;;;7.38;2.00;;;3.90;73.50;;;;;;5047077;28;20116;-56
2021/04/08 03:14:51;;;;;;;3.00;1.70;;;3.90;73.00;;;;;;5045522;28;20051;-56
2021/04/08 03:17:21;;;;;;;4.13;1.70;;;3.80;72.80;;;;;;5046045;28;20683;-56
2021/04/08 03:19:50;;;;;;;3.17;1.67;;;3.70;72.80;;;;;;5045145;28;20021;-56
2021/04/08 03:22:18;;;;;;;2.33;1.70;;;3.80;72.50;;;;;;5046493;28;20491;-56
2021/04/08 03:24:45;;;;;;;4.97;2.08;;;3.70;72.90;;;;;;5045360;28;20381;-56
2021/04/08 03:27:11;;;;;;;3.08;1.60;;;3.90;72.90;;;;;;5046247;28;20029;-56
2021/04/08 03:29:41;;;;;;;3.17;1.60;;;4.00;72.90;;;;;;5058281;28;20028;-56
2021/04/08 03:32:08;;;;;;;4.53;2.22;;;4.10;72.50;;;;;;5066141;28;20028;-56
2021/04/08 03:34:39;;;;;;;6.72;2.05;;;4.00;72.30;;;;;;5065935;28;20040;-56
2021/04/08 03:37:06;;;;;;;4.07;1.60;;;4.00;72.60;;;;;;5066186;28;20036;-56
2021/04/08 03:39:32;;;;;;;4.75;2.55;;;4.00;72.60;;;;;;5066020;28;20065;-56
2021/04/08 03:41:58;;;;;;;3.60;1.80;;;4.10;72.70;;;;;;5066433;28;20109;-56
2021/04/08 03:44:25;;;;;;;4.53;2.42;;;4.10;72.90;;;;;;5066543;28;20032;-56
2021/04/08 03:46:56;;;;;;;6.43;2.53;;;4.10;72.90;;;;;;5066763;28;20111;-56
2021/04/08 03:49:22;;;;;;;5.45;2.70;;;4.00;72.70;;;;;;5066977;28;20017;-56
2021/04/08 03:51:49;;;;;;;6.47;2.45;;;3.70;73.50;;;;;;5066019;28;20086;-56
2021/04/08 03:54:15;;;;;;;7.43;2.58;;;3.80;73.50;;;;;;5065014;28;20040;-56
2021/04/08 03:56:46;;;;;;;4.13;1.90;;;3.70;73.00;;;;;;5063692;28;20029;-56
2021/04/08 03:59:13;;;;;;;4.63;2.10;;;3.60;73.20;;;;;;5066115;28;20107;-56
2021/04/08 04:01:39;;;;;;;4.18;1.80;;;3.60;73.10;;;;;;5064662;28;20025;-56
2021/04/08 04:04:07;;;;;;;4.35;1.90;;;3.70;73.00;;;;;;5066375;28;20364;-56
2021/04/08 04:06:36;;;;;;;4.20;1.60;;;3.60;72.50;;;;;;5066280;28;20036;-58
2021/04/08 04:09:04;;;;;;;5.57;2.00;;;3.70;73.50;;;;;;5065755;28;20039;-56
2021/04/08 04:11:32;;;;;;;4.03;2.03;;;3.80;73.10;;;;;;5064906;28;20502;-56
2021/04/08 04:14:00;;;;;;;4.28;2.50;;;3.70;72.80;;;;;;5065113;28;20028;-56
2021/04/08 04:16:27;;;;;;;5.80;2.10;;;3.80;73.10;;;;;;5065552;28;20025;-56
2021/04/08 04:18:52;;;;;;;3.50;2.30;;;3.90;73.20;;;;;;5065398;28;20032;-56
2021/04/08 04:21:18;;;;;;;6.10;2.30;;;3.90;73.60;;;;;;5054625;28;20025;-58
2021/04/08 04:23:44;;;;;;;5.05;2.20;;;3.90;73.80;;;;;;5045362;28;20360;-56
2021/04/08 04:26:11;;;;;;;4.20;2.22;;;3.90;73.60;;;;;;5053919;28;20063;-56
2021/04/08 04:28:37;;;;;;;5.72;2.40;;;3.70;73.80;;;;;;5051825;28;20025;-56
2021/04/08 04:31:02;;;;;;;5.43;3.08;;;3.70;74.50;;;;;;5067732;28;20063;-56
2021/04/08 04:33:28;;;;;;;6.28;4.25;;;3.60;74.90;;;;;;5066769;28;20056;-56
2021/04/08 04:35:56;;;;;;;6.55;3.33;;;3.70;75.00;;;;;;5067400;28;20037;-56
2021/04/08 04:38:22;;;;;;;6.32;3.03;;;3.60;77.50;;;;;;5069133;28;20020;-56
2021/04/08 04:40:48;;;;;;;8.10;3.22;;;3.60;76.80;;;;;;5069079;28;20395;-56
2021/04/08 04:43:13;;;;;;;5.35;2.90;;;3.60;76.40;;;;;;5060396;28;20086;-56
2021/04/08 04:45:40;;;;;;;4.75;2.22;;;3.50;76.70;;;;;;5049106;28;20039;-58
2021/04/08 04:48:08;;;;;;;5.18;2.80;;;3.40;77.90;;;;;;5049736;28;20028;-56
2021/04/08 04:50:34;;;;;;;4.45;2.75;;;3.30;78.40;;;;;;5057880;28;20188;-56
2021/04/08 04:52:59;;;;;;;5.10;2.80;;;3.00;82.90;;;;;;5055066;28;20056;-55
2021/04/08 04:55:25;;;;;;;4.80;2.72;;;2.90;84.40;;;;;;5047467;28;20036;-56
2021/04/08 04:57:51;;;;;;;6.20;2.40;;;2.90;86.50;;;;;;5048993;28;20079;-55
2021/04/08 05:00:17;;;;;;;3.50;2.13;;;3.10;86.90;;;;;;5048916;28;20109;-55
2021/04/08 05:02:43;;;;;;;4.32;2.17;;;3.20;88.20;;;;;;5048629;28;20029;-56
2021/04/08 05:05:09;;;;;;;7.03;2.40;;;2.90;91.50;;;;;;5066896;28;20035;-55
2021/04/08 05:07:35;;;;;;;4.88;2.63;;;2.80;93.90;;;;;;5068479;28;20148;-55
2021/04/08 05:10:00;;;;;;;4.40;2.30;;;2.60;94.90;;;;;;5067899;28;20473;-58
2021/04/08 05:12:26;;;;;;;4.25;1.95;;;2.50;95.30;;;;;;5055744;28;20024;-56
2021/04/08 05:14:52;;;;;;;4.50;2.03;;;2.50;95.50;;;;;;5067122;28;20028;-56
2021/04/08 05:17:18;;;;;;;4.57;1.92;;;2.70;95.60;;;;;;5058900;28;20033;-56
2021/04/08 05:19:43;;;;;;;3.97;1.92;;;2.80;95.90;;;;;;5060896;28;20112;-56
2021/04/08 05:22:09;;;;;;;4.70;2.15;;;2.80;96.60;;;;;;5068618;28;20074;-56
2021/04/08 05:24:35;;;;;;;6.72;3.30;;;2.70;95.60;;;;;;5068602;28;20035;-56
2021/04/08 05:27:00;;;;;;;51.47;20.08;;;2.90;95.10;;;;;;5068476;28;20025;-56
2021/04/08 05:29:26;;;;;;;34.20;13.88;;;2.90;94.60;;;;;;5050661;28;20035;-56
2021/04/08 05:31:52;;;;;;;17.92;7.82;;;3.10;92.50;;;;;;5048336;28;20091;-56
2021/04/08 05:34:18;;;;;;;13.55;6.07;;;3.10;91.70;;;;;;5047919;28;20029;-56
2021/04/08 05:36:43;;;;;;;8.48;4.25;;;3.20;90.50;;;;;;5047958;28;20036;-56
2021/04/08 05:39:09;;;;;;;7.47;3.88;;;3.00;90.70;;;;;;5047944;28;20033;-56
2021/04/08 05:41:35;;;;;;;6.38;3.00;;;2.90;90.00;;;;;;5047829;28;20056;-56
2021/04/08 05:44:03;;;;;;;6.43;3.15;;;2.90;90.10;;;;;;5047647;28;20036;-56
2021/04/08 05:46:28;;;;;;;5.75;2.78;;;3.00;89.80;;;;;;5047527;28;20028;-56
2021/04/08 05:48:54;;;;;;;6.97;3.10;;;3.00;89.60;;;;;;5047917;28;20159;-56
2021/04/08 05:51:20;;;;;;;6.82;3.03;;;3.10;89.10;;;;;;5048022;28;20056;-56
2021/04/08 05:53:45;;;;;;;5.50;2.90;;;2.90;88.70;;;;;;5054208;28;20056;-56
2021/04/08 05:56:11;;;;;;;6.35;3.72;;;2.80;90.30;;;;;;5068170;28;20360;-56
2021/04/08 05:58:37;;;;;;;10.40;4.78;;;2.80;90.40;;;;;;5066876;28;20430;-56
2021/04/08 06:01:03;;;;;;;10.07;5.25;;;2.80;90.10;;;;;;5066878;28;20021;-56
2021/04/08 06:03:29;;;;;;;9.65;4.63;;;2.80;90.40;;;;;;5067229;28;20503;-56
2021/04/08 06:05:55;;;;;;;6.53;3.55;;;2.70;91.40;;;;;;5067718;28;20039;-56
2021/04/08 06:08:20;;;;;;;6.40;3.22;;;2.90;91.60;;;;;;5067001;28;20446;-56
2021/04/08 06:10:46;;;;;;;8.18;3.38;;;3.00;91.50;;;;;;5066981;28;20075;-56
2021/04/08 06:13:12;;;;;;;7.25;3.10;;;3.10;91.70;;;;;;5067374;28;20610;-56
2021/04/08 06:15:38;;;;;;;7.25;2.97;;;3.10;91.30;;;;;;5061819;28;20021;-56
2021/04/08 06:18:04;;;;;;;8.98;3.85;;;3.10;91.50;;;;;;5047385;28;20118;-56
2021/04/08 06:20:30;;;;;;;8.02;4.35;;;3.20;90.90;;;;;;5047255;28;20475;-56
2021/04/08 06:22:59;;;;;;;10.27;4.53;;;3.40;89.70;;;;;;5062665;28;20024;-56
2021/04/08 06:25:25;;;;;;;11.50;5.13;;;3.50;89.50;;;;;;5067454;28;20039;-56
2021/04/08 06:27:51;;;;;;;13.98;6.53;;;3.50;89.90;;;;;;5067293;28;20108;-56
2021/04/08 06:30:18;;;;;;;8.43;4.45;;;3.50;88.80;;;;;;5063806;28;20123;-56
2021/04/08 06:32:44;;;;;;;12.35;5.13;;;3.50;88.30;;;;;;5065230;28;20029;-58
2021/04/08 06:35:10;;;;;;;9.18;4.15;;;3.60;88.00;;;;;;5066292;28;20154;-56
2021/04/08 06:37:36;;;;;;;20.25;9.82;;;3.60;87.30;;;;;;5044886;28;20439;-56
2021/04/08 06:40:02;;;;;;;15.13;7.05;;;3.70;86.40;;;;;;5045243;28;20070;-56
2021/04/08 06:42:30;;;;;;;11.35;6.40;;;3.70;85.90;;;;;;5045055;28;20151;-56
2021/04/08 06:44:57;;;;;;;8.13;4.30;;;3.70;86.20;;;;;;5044871;28;20024;-56
2021/04/08 06:47:32;;;;;;;9.25;4.13;;;3.60;86.00;;;;;;5045148;28;20033;-56
2021/04/08 06:50:06;;;;;;;4.88;3.10;;;3.70;86.20;;;;;;5044959;28;20036;-56
2021/04/08 06:52:32;;;;;;;5.30;2.88;;;4.00;86.10;;;;;;5045258;28;20025;-56
2021/04/08 06:55:00;;;;;;;7.80;3.42;;;4.00;85.40;;;;;;5043583;28;20056;-56
2021/04/08 06:57:26;;;;;;;11.68;7.32;;;3.90;85.40;;;;;;5044564;28;20040;-56
2021/04/08 06:59:56;;;;;;;12.18;6.22;;;4.00;84.50;;;;;;5045024;28;20029;-56
2021/04/08 07:02:23;;;;;;;7.35;4.13;;;4.20;84.40;;;;;;5044974;28;20526;-56
2021/04/08 07:04:51;;;;;;;6.68;3.40;;;4.30;83.90;;;;;;5045288;28;20072;-56
2021/04/08 07:07:17;;;;;;;5.80;3.22;;;4.30;84.30;;;;;;5045401;28;20087;-56
2021/04/08 07:09:43;;;;;;;5.60;2.88;;;4.40;83.80;;;;;;5043566;28;20037;-56
2021/04/08 07:12:11;;;;;;;5.47;3.00;;;4.50;83.70;;;;;;5044317;28;20037;-56
2021/04/08 07:14:37;;;;;;;5.22;2.90;;;4.50;84.00;;;;;;5044481;28;20035;-56
2021/04/08 07:17:08;;;;;;;4.72;2.72;;;4.50;84.00;;;;;;5044375;28;20033;-56
2021/04/08 07:19:34;;;;;;;6.43;3.05;;;4.50;83.70;;;;;;5044792;28;20412;-56
2021/04/08 07:22:00;;;;;;;5.05;2.55;;;4.60;84.30;;;;;;5057780;28;20028;-56
2021/04/08 07:24:27;;;;;;;6.55;2.50;;;4.60;84.00;;;;;;5064295;28;20081;-56
2021/04/08 07:27:01;;;;;;;4.05;2.40;;;4.70;83.70;;;;;;5064467;28;20428;-56
2021/04/08 07:29:39;;;;;;;4.70;2.15;;;4.80;81.90;;;;;;5052831;28;20032;-56
2021/04/08 07:32:06;;;;;;;4.88;2.30;;;4.80;83.00;;;;;;5044759;28;20107;-56
2021/04/08 07:34:36;;;;;;;4.03;2.47;;;4.90;82.50;;;;;;5044191;28;20423;-56
2021/04/08 07:37:03;;;;;;;5.57;2.25;;;5.00;82.70;;;;;;5044147;28;20074;-56
2021/04/08 07:39:56;;;;;;;3.70;2.33;;;5.00;81.80;;;;;;5049742;28;20029;-56
2021/04/08 07:42:31;;;;;;;3.88;2.30;;;5.10;81.60;;;;;;5057015;28;20086;-56
2021/04/08 07:45:04;;;;;;;;;;;5.20;81.50;;;;;;5048515;28;20021;-56
2021/04/08 07:47:40;;;;;;;6.10;2.30;;;5.20;80.70;;;;;;5046286;28;19920;-56
2021/04/08 07:50:06;;;;;;;3.85;2.20;;;5.20;80.40;;;;;;5056654;28;20415;-56
2021/04/08 07:52:37;;;;;;;5.00;2.25;;;5.30;80.30;;;;;;5048867;28;20033;-56
2021/04/08 07:55:10;;;;;;;4.43;2.00;;;5.50;79.10;;;;;;5058230;28;20056;-56
2021/04/08 07:57:56;;;;;;;3.47;2.25;;;5.50;78.90;;;;;;5047248;28;20441;-56
2021/04/08 08:00:33;;;;;;;6.15;2.10;;;5.70;77.20;;;;;;5056473;28;20095;-56
2021/04/08 08:03:03;;;;;;;3.47;1.85;;;5.80;75.50;;;;;;5062349;28;20583;-56
2021/04/08 08:05:35;;;;;;;2.83;1.42;;;5.80;75.80;;;;;;5064775;28;20155;-56
2021/04/08 08:08:35;;;;;;;2.65;1.38;;;5.90;76.50;;;;;;5058540;28;20029;-56
2021/04/08 08:11:04;;;;;;;2.00;1.10;;;6.00;75.90;;;;;;5046614;28;20037;-56
2021/04/08 08:13:31;;;;;;;1.75;1.00;;;6.10;74.90;;;;;;5057189;28;20028;-56
2021/04/08 08:15:58;;;;;;;1.50;1.00;;;6.20;75.40;;;;;;5067896;28;20482;-56
2021/04/08 08:18:45;;;;;;;1.98;1.25;;;6.10;76.80;;;;;;5066623;28;20426;-56
2021/04/08 08:21:15;;;;;;;1.33;0.90;;;6.00;74.30;;;;;;5066641;28;20048;-56
2021/04/08 08:23:50;;;;;;;1.63;1.10;;;6.20;74.40;;;;;;5045864;28;20032;-56
2021/04/08 08:26:41;;;;;;;2.90;1.30;;;6.20;74.50;;;;;;5065134;28;20088;-56
2021/04/08 08:29:06;;;;;;;2.60;1.50;;;6.30;73.60;;;;;;5066529;28;20072;-56
2021/04/08 08:31:40;;;;;;;2.67;1.20;;;6.30;75.30;;;;;;5063628;28;20068;-56
2021/04/08 08:34:09;;;;;;;2.35;1.30;;;6.30;74.50;;;;;;5053251;28;20471;-56
2021/04/08 08:36:36;;;;;;;2.80;1.17;;;6.30;76.00;;;;;;5068620;28;20110;-58
2021/04/08 08:39:05;;;;;;;2.85;1.60;;;6.30;75.90;;;;;;5055019;28;20108;-56
2021/04/08 08:41:32;;;;;;;2.05;1.02;;;6.40;74.40;;;;;;5049045;28;20017;-56
2021/04/08 08:43:58;;;;;;;2.20;1.20;;;6.60;73.60;;;;;;5048818;28;20025;-56
2021/04/08 08:46:26;;;;;;;3.22;1.45;;;6.80;72.50;;;;;;5051369;28;20078;-56
2021/04/08 08:48:58;;;;;;;2.92;1.40;;;6.30;71.10;;;;;;5049825;28;20060;-56
2021/04/08 08:51:25;;;;;;;1.75;1.10;;;6.50;70.80;;;;;;5048848;28;20104;-56
2021/04/08 08:53:53;;;;;;;2.35;1.02;;;6.50;71.00;;;;;;5060374;28;20032;-56
2021/04/08 08:56:23;;;;;;;1.30;0.90;;;6.70;70.70;;;;;;5056790;28;20111;-56
2021/04/08 08:58:52;;;;;;;2.28;1.10;;;6.80;71.00;;;;;;5049199;28;20025;-56
2021/04/08 09:01:18;;;;;;;2.53;1.08;;;6.80;70.90;;;;;;5048963;28;20036;-56
2021/04/08 09:03:44;;;;;;;1.10;0.80;;;7.20;71.20;;;;;;5048190;28;20094;-56
2021/04/08 09:06:10;;;;;;;2.95;0.90;;;7.20;68.40;;;;;;5056549;28;20025;-56
2021/04/08 09:08:38;;;;;;;1.50;0.88;;;7.40;69.70;;;;;;5068044;28;20464;-56
2021/04/08 09:11:05;;;;;;;1.17;0.70;;;7.40;65.80;;;;;;5068757;28;20077;-56
2021/04/08 09:13:31;;;;;;;0.95;0.70;;;7.50;67.30;;;;;;5062690;28;20088;-56
2021/04/08 09:16:00;;;;;;;0.65;0.60;;;7.70;64.30;;;;;;5055388;28;20585;-56
2021/04/08 09:18:26;;;;;;;0.77;0.70;;;7.80;63.70;;;;;;5047629;28;20112;-56
2021/04/08 09:20:54;;;;;;;1.00;0.60;;;7.90;68.80;;;;;;5052064;28;20542;-58
2021/04/08 09:23:22;;;;;;;1.35;0.90;;;8.00;65.10;;;;;;5063774;28;20394;-57
2021/04/08 09:25:55;;;;;;;1.05;0.50;;;8.00;66.30;;;;;;5054950;28;20033;-56
2021/04/08 09:28:22;;;;;;;1.65;0.90;;;8.20;65.10;;;;;;5050242;28;20063;-56
2021/04/08 09:33:40;;;;;;;4.68;1.60;;;8.60;66.80;;;;;;5046651;28;20521;-57
2021/04/08 09:36:18;;;;;;;2.00;1.00;;;8.50;64.70;;;;;;5046600;28;20463;-57
2021/04/08 09:38:45;;;;;;;2.15;1.20;;;8.20;63.30;;;;;;5046004;28;20029;-57
2021/04/08 09:41:10;;;;;;;2.05;1.17;;;8.40;63.40;;;;;;5046571;28;20055;-56
2021/04/08 09:43:37;;;;;;;2.15;1.05;;;8.30;63.50;;;;;;5045921;28;20068;-57
2021/04/08 09:46:09;;;;;;;1.55;0.90;;;8.30;62.90;;;;;;5046375;28;20021;-57
2021/04/08 09:48:54;;;;;;;1.00;0.90;;;8.60;65.60;;;;;;5046196;28;20047;-57
2021/04/08 09:51:28;;;;;;;1.73;0.80;;;9.00;64.80;;;;;;5046784;28;20025;-57
2021/04/08 09:53:54;;;;;;;0.93;0.60;;;9.10;62.80;;;;;;5057892;28;20029;-57
2021/04/08 09:56:39;;;;;;;1.30;0.70;;;8.80;60.50;;;;;;5067207;28;20396;-57
2021/04/08 09:59:05;;;;;;;0.77;0.60;;;9.20;63.10;;;;;;5064579;28;20503;-57
2021/04/08 10:01:30;;;;;;;1.27;0.70;;;9.40;63.90;;;;;;5065727;28;20029;-57
2021/04/08 10:03:56;;;;;;;0.65;0.65;;;9.10;59.30;;;;;;5065890;28;20035;-57
2021/04/08 10:06:24;;;;;;;0.98;0.70;;;8.90;61.60;;;;;;5065845;28;20044;-57
2021/04/08 10:08:52;;;;;;;1.10;0.70;;;9.40;65.40;;;;;;5064533;28;20040;-57
2021/04/08 10:11:31;;;;;;;0.75;0.60;;;9.50;60.60;;;;;;5065981;28;20526;-57
2021/04/08 10:13:57;;;;;;;0.45;0.45;;;9.40;58.60;;;;;;5065654;28;20103;-57
2021/04/08 10:16:24;;;;;;;1.40;0.68;;;9.30;58.10;;;;;;5065666;28;20099;-56
2021/04/08 10:18:59;;;;;;;1.90;1.05;;;9.00;56.20;;;;;;5065686;28;20028;-58
2021/04/08 10:21:25;;;;;;;1.63;1.02;;;8.90;56.80;;;;;;5065814;28;20020;-57
2021/04/08 10:23:54;;;;;;;0.95;0.80;;;9.30;56.20;;;;;;5065893;28;20513;-57
2021/04/08 10:26:22;;;;;;;1.48;0.90;;;9.40;56.40;;;;;;5065412;28;20029;-57
2021/04/08 10:28:49;;;;;;;1.48;0.80;;;9.50;56.70;;;;;;5064708;28;20202;-57
2021/04/08 10:31:25;;;;;;;0.95;0.70;;;9.90;58.40;;;;;;5065456;28;20036;-57
2021/04/08 10:34:03;;;;;;;0.65;0.50;;;10.10;57.30;;;;;;5065591;28;20081;-57
2021/04/08 10:36:46;;;;;;;1.35;0.60;;;10.40;54.50;;;;;;5065026;28;20020;-57
2021/04/08 10:39:20;;;;;;;0.82;0.60;;;10.00;52.30;;;;;;5065298;28;20032;-57
2021/04/08 10:42:02;;;;;;;1.75;0.70;;;10.20;55.00;;;;;;5065766;28;20020;-57
2021/04/08 10:44:36;;;;;;;0.57;0.52;;;10.60;53.90;;;;;;5064628;28;20100;-57
2021/04/08 10:47:15;;;;;;;0.65;0.50;;;10.40;50.20;;;;;;5065341;28;20024;-57
2021/04/08 10:49:46;;;;;;;0.45;0.43;;;10.70;51.20;;;;;;5064578;28;20059;-57
2021/04/08 10:52:18;;;;;;;1.05;0.55;;;10.40;48.40;;;;;;5065053;28;20558;-56
2021/04/08 10:54:48;;;;;;;0.82;0.50;;;10.10;46.30;;;;;;5065254;28;20029;-57
2021/04/08 10:57:14;;;;;;;0.82;0.50;;;10.50;50.00;;;;;;5065213;28;20035;-57
2021/04/08 10:59:43;;;;;;;0.43;0.40;;;11.00;50.90;;;;;;5063147;28;20031;-57
2021/04/08 11:02:35;;;;;;;0.68;0.50;;;11.00;47.20;;;;;;5064955;28;20590;-57
2021/04/08 11:05:05;;;;;;;0.52;0.43;;;11.00;47.10;;;;;;5064465;28;20043;-57
2021/04/08 11:07:52;;;;;;;1.02;0.55;;;10.70;46.80;;;;;;5063838;28;20103;-57
2021/04/08 11:10:19;;;;;;;1.00;0.35;;;10.90;50.30;;;;;;5064100;28;20410;-57
2021/04/08 11:12:49;;;;;;;0.30;0.30;;;11.20;50.00;;;;;;5064652;28;20032;-57
2021/04/08 11:15:19;;;;;;;0.57;0.50;;;11.50;50.40;;;;;;5065573;28;20064;-57
2021/04/08 11:17:48;;;;;;;0.68;0.52;;;11.40;47.70;;;;;;5064917;28;20064;-57
2021/04/08 11:20:16;;;;;;;0.80;0.50;;;11.00;47.10;;;;;;5064834;28;20423;-57
2021/04/08 11:22:45;;;;;;;0.40;0.40;;;11.00;47.20;;;;;;5064270;28;20035;-57
2021/04/08 11:25:15;;;;;;;0.30;0.30;;;11.40;49.90;;;;;;5064829;28;20020;-57
2021/04/08 11:27:45;;;;;;;0.60;0.40;;;11.90;49.70;;;;;;5064045;28;20045;-57
2021/04/08 11:30:14;;;;;;;1.50;0.60;;;11.90;50.10;;;;;;5063277;28;20063;-57
2021/04/08 11:32:44;;;;;;;1.40;0.75;;;11.80;50.10;;;;;;5064452;28;20417;-56
2021/04/08 11:35:26;;;;;;;2.67;1.00;;;11.70;47.90;;;;;;5064580;28;20103;-57
2021/04/08 11:38:04;;;;;;;1.52;0.70;;;11.40;49.50;;;;;;5064457;28;20409;-57
2021/04/08 11:40:30;;;;;;;1.05;0.60;;;12.10;53.30;;;;;;5063575;28;20024;-57
2021/04/08 11:42:56;;;;;;;1.50;0.95;;;12.40;52.90;;;;;;5064005;28;20020;-57
2021/04/08 11:45:33;;;;;;;0.70;0.70;;;12.10;48.00;;;;;;5064475;28;20078;-57
2021/04/08 11:48:06;;;;;;;2.45;1.20;;;12.00;48.80;;;;;;5064321;28;20533;-57
2021/04/08 11:50:37;;;;;;;2.97;1.20;;;12.30;49.30;;;;;;5062782;28;20111;-57
2021/04/08 11:53:11;;;;;;;4.68;2.25;;;12.10;48.30;;;;;;5065473;28;20036;-57
2021/04/08 11:55:48;;;;;;;4.30;2.03;;;12.40;49.90;;;;;;5063246;28;20106;-57
2021/04/08 11:58:35;;;;;;;3.25;1.55;;;13.20;50.30;;;;;;5063431;28;20071;-57
2021/04/08 12:01:31;;;;;;;2.33;1.30;;;12.80;47.90;;;;;;5064857;28;20040;-57
2021/04/08 12:03:57;;;;;;;4.38;2.35;;;12.60;48.20;;;;;;5064125;28;20060;-57
2021/04/08 12:06:23;;;;;;;4.93;3.13;;;12.60;48.20;;;;;;5063448;28;20063;-57
2021/04/08 12:08:55;;;;;;;4.68;2.90;;;12.80;48.70;;;;;;5062918;28;20131;-57
2021/04/08 12:11:22;;;;;;;4.50;2.85;;;13.10;48.50;;;;;;5064136;28;20445;-57
2021/04/08 12:14:05;;;;;;;3.40;1.98;;;12.80;48.40;;;;;;5063714;28;20078;-57
2021/04/08 12:16:31;;;;;;;2.28;1.38;;;13.30;50.40;;;;;;5064329;28;20529;-57
2021/04/08 12:18:57;;;;;;;1.88;1.30;;;13.50;48.80;;;;;;5064035;28;20048;-57
2021/04/08 12:21:27;;;;;;;1.02;0.90;;;13.70;47.70;;;;;;5064010;28;20478;-57
2021/04/08 12:23:54;;;;;;;2.28;1.00;;;14.20;50.30;;;;;;5064104;28;20033;-57
2021/04/08 12:26:37;;;;;;;1.52;1.00;;;14.00;46.40;;;;;;5058183;28;20424;-58
2021/04/08 12:29:03;;;;;;;1.65;0.82;;;14.10;50.10;;;;;;5053770;28;20104;-57
2021/04/08 12:31:30;;;;;;;1.05;0.65;;;14.70;49.50;;;;;;5064392;28;20016;-57
2021/04/08 12:33:56;;;;;;;0.63;0.50;;;14.70;47.90;;;;;;5059453;28;20024;-57
2021/04/08 12:36:22;;;;;;;1.95;0.68;;;14.90;49.20;;;;;;5055389;28;20384;-57
2021/04/08 12:38:48;;;;;;;1.83;1.02;;;14.70;46.60;;;;;;5056741;28;20108;-56
2021/04/08 12:41:14;;;;;;;1.35;0.88;;;14.60;46.70;;;;;;5043814;28;20514;-57
2021/04/08 12:43:40;;;;;;;1.02;0.93;;;14.80;47.10;;;;;;5048536;28;20029;-57
2021/04/08 12:46:11;;;;;;;1.77;0.80;;;15.10;48.80;;;;;;5055824;28;20028;-57
2021/04/08 12:48:36;;;;;;;1.05;0.80;;;15.50;47.00;;;;;;5062007;28;20033;-57
2021/04/08 12:51:02;;;;;;;2.17;1.10;;;15.50;46.90;;;;;;5055345;28;20024;-57
2021/04/08 12:53:29;;;;;;;0.60;0.60;;;15.50;45.80;;;;;;5064229;28;20101;-57
2021/04/08 12:55:56;;;;;;;2.13;0.98;;;15.60;45.50;;;;;;5051525;28;20744;-57
2021/04/08 12:58:22;;;;;;;1.20;0.88;;;15.70;47.40;;;;;;5049468;28;20025;-57
2021/04/08 13:00:48;;;;;;;1.70;1.00;;;16.10;45.80;;;;;;5057343;28;20048;-56
2021/04/08 13:03:15;;;;;;;1.48;0.95;;;16.30;45.10;;;;;;5051413;28;20044;-56
2021/04/08 13:05:42;;;;;;;2.33;1.42;;;16.40;44.80;;;;;;5048555;28;20021;-57
2021/04/08 13:08:08;;;;;;;2.75;1.50;;;16.20;45.90;;;;;;5047511;28;20052;-57